Time;durP1;ratioP1;P1;durP2;ratioP2;P2;SDS_P1;SDS_P2;PMS_P1;PMS_P2;Temp;Humidity;BMP_temperature;BMP_pressure;BME280_temperature;BME280_humidity;BME280_pressure;Samples;Min_cycle;Max_cycle;Signal;HPM_P1;HPM_P2
2022/01/08 00:01:31;;;;;;;7.68;5.55;;;1.00;99.90;;;;;;5007631;28;20038;-50
2022/01/08 00:03:56;;;;;;;6.70;5.03;;;1.00;99.90;;;;;;5000697;28;20128;-50
2022/01/08 00:06:22;;;;;;;6.85;4.40;;;1.00;99.90;;;;;;5010431;28;20440;-51
2022/01/08 00:08:49;;;;;;;5.68;4.10;;;1.00;99.90;;;;;;5005382;28;20030;-50
2022/01/08 00:11:18;;;;;;;4.45;3.95;;;1.00;99.90;;;;;;5009060;28;20021;-50
2022/01/08 00:13:44;;;;;;;4.88;3.80;;;1.00;99.90;;;;;;5012816;28;20036;-51
2022/01/08 00:16:10;;;;;;;4.30;3.90;;;1.00;99.90;;;;;;5003269;28;20520;-50
2022/01/08 00:18:36;;;;;;;4.68;3.97;;;0.90;99.90;;;;;;5007366;28;20036;-51
2022/01/08 00:21:02;;;;;;;4.07;3.60;;;0.90;99.90;;;;;;5003974;28;20037;-50
2022/01/08 00:23:28;;;;;;;3.80;3.45;;;0.80;99.90;;;;;;4999227;28;20602;-50
2022/01/08 00:25:53;;;;;;;3.47;3.17;;;0.70;99.90;;;;;;4999831;28;20038;-51
2022/01/08 00:28:19;;;;;;;4.78;3.58;;;0.60;99.90;;;;;;5005134;28;20067;-50
2022/01/08 00:30:47;;;;;;;3.97;3.58;;;0.50;99.90;;;;;;5003795;28;20037;-50
2022/01/08 00:33:12;;;;;;;3.35;3.05;;;0.50;99.90;;;;;;5003032;28;20033;-50
2022/01/08 00:35:38;;;;;;;4.90;3.47;;;0.50;99.90;;;;;;5007058;28;20025;-52
2022/01/08 00:38:04;;;;;;;3.78;3.38;;;0.50;99.90;;;;;;5002511;28;20030;-51
2022/01/08 00:40:30;;;;;;;3.58;3.28;;;0.50;99.90;;;;;;5004716;28;20029;-50
2022/01/08 00:42:56;;;;;;;3.85;3.08;;;0.50;99.90;;;;;;5007712;28;20410;-50
2022/01/08 00:45:21;;;;;;;5.50;3.42;;;0.50;99.90;;;;;;5000751;28;20069;-51
2022/01/08 00:47:47;;;;;;;3.80;3.05;;;0.50;99.90;;;;;;5009909;28;20026;-50
2022/01/08 00:50:13;;;;;;;6.57;3.30;;;0.50;99.90;;;;;;5025163;28;20040;-50
2022/01/08 00:52:40;;;;;;;3.67;2.95;;;0.50;99.90;;;;;;5005137;28;20034;-50
2022/01/08 00:55:06;;;;;;;5.82;3.20;;;0.40;99.90;;;;;;5004746;28;20041;-52
2022/01/08 00:57:32;;;;;;;2.47;2.28;;;0.40;99.90;;;;;;5003698;28;20739;-50
2022/01/08 00:59:58;;;;;;;3.63;1.95;;;0.40;99.90;;;;;;5001103;28;20033;-50
2022/01/08 01:02:24;;;;;;;3.60;3.30;;;0.30;99.90;;;;;;5010099;28;20144;-50
2022/01/08 01:04:49;;;;;;;3.50;2.70;;;0.30;99.90;;;;;;5001491;28;20040;-50
2022/01/08 01:07:15;;;;;;;3.15;2.72;;;0.20;99.90;;;;;;5017203;28;20040;-51
2022/01/08 01:09:41;;;;;;;4.07;3.17;;;0.10;99.90;;;;;;5011080;28;20045;-50
2022/01/08 01:12:07;;;;;;;7.57;2.78;;;-0.20;99.90;;;;;;5029822;28;21199;-50
2022/01/08 01:14:32;;;;;;;1.98;1.88;;;-0.20;99.90;;;;;;5020812;28;20038;-50
2022/01/08 01:16:58;;;;;;;3.45;2.80;;;-0.30;99.90;;;;;;5010803;28;20029;-50
2022/01/08 01:19:24;;;;;;;3.92;2.60;;;-0.30;99.90;;;;;;5008575;28;20110;-50
2022/01/08 01:21:50;;;;;;;2.65;2.38;;;-0.40;99.90;;;;;;5005179;28;20152;-51
2022/01/08 01:24:21;;;;;;;2.42;2.22;;;-0.40;99.90;;;;;;5014732;28;20077;-51
2022/01/08 01:27:10;;;;;;;3.05;2.85;;;-0.40;99.90;;;;;;5014200;28;20087;-50
2022/01/08 01:48:25;;;;;;;4.53;2.07;;;-0.70;99.90;;;;;;5006547;28;20143;-50
2022/01/08 01:50:51;;;;;;;1.92;1.83;;;-0.80;99.90;;;;;;5011042;28;20116;-50
2022/01/08 01:53:16;;;;;;;4.32;3.10;;;-0.70;99.90;;;;;;5006777;28;20040;-51
2022/01/08 01:55:45;;;;;;;2.55;2.35;;;-0.70;99.90;;;;;;5009640;28;20037;-51
2022/01/08 01:58:12;;;;;;;56.53;4.40;;;-0.70;99.90;;;;;;5010615;28;20113;-50
2022/01/08 02:00:37;;;;;;;33.65;2.75;;;-1.00;99.90;;;;;;5022837;28;20477;-48
2022/01/08 02:03:03;;;;;;;103.30;7.22;;;-1.20;99.90;;;;;;5013378;28;20120;-48
2022/01/08 02:05:29;;;;;;;1.80;1.70;;;-1.40;99.90;;;;;;5010384;28;20524;-48
2022/01/08 02:07:55;;;;;;;6.60;1.42;;;-1.50;99.90;;;;;;5005994;28;20029;-48
2022/01/08 02:10:22;;;;;;;1.27;1.27;;;-1.60;99.90;;;;;;4996829;28;20171;-48
2022/01/08 02:12:54;;;;;;;3.08;1.92;;;-1.70;99.90;;;;;;5008152;28;20026;-48
2022/01/08 02:15:19;;;;;;;20.48;2.30;;;-1.80;99.90;;;;;;5011368;28;20410;-48
2022/01/08 02:17:45;;;;;;;30.05;2.88;;;-1.90;99.90;;;;;;5020918;28;20037;-48
2022/01/08 02:20:11;;;;;;;2.22;2.03;;;-1.90;99.90;;;;;;5009097;28;20037;-48
2022/01/08 02:22:37;;;;;;;1.65;1.55;;;-1.90;99.90;;;;;;5006041;28;20525;-48
2022/01/08 02:25:03;;;;;;;2.22;1.88;;;-2.00;99.90;;;;;;5002164;28;20037;-48
2022/01/08 02:27:29;;;;;;;3.88;3.47;;;-2.00;99.90;;;;;;5003477;28;20030;-48
2022/01/08 02:29:54;;;;;;;2.72;2.53;;;-1.90;99.90;;;;;;5005401;28;20037;-48
2022/01/08 02:32:29;;;;;;;2.95;2.00;;;-1.90;99.90;;;;;;5013691;28;20037;-48
2022/01/08 02:34:54;;;;;;;1.67;1.58;;;-1.80;99.90;;;;;;5005035;28;20037;-48
2022/01/08 02:37:25;;;;;;;3.55;2.03;;;-1.80;99.90;;;;;;5007171;28;20033;-48
2022/01/08 02:39:51;;;;;;;2.28;2.08;;;-1.90;99.90;;;;;;5010425;28;20059;-49
2022/01/08 02:42:19;;;;;;;2.00;1.73;;;-1.90;99.90;;;;;;5006366;28;20037;-48
2022/01/08 02:44:46;;;;;;;16.55;2.75;;;-2.10;99.90;;;;;;5002076;28;20034;-48
2022/01/08 02:47:19;;;;;;;3.35;2.47;;;-2.30;99.90;;;;;;5003377;28;20134;-48
2022/01/08 02:49:46;;;;;;;1.90;1.80;;;-2.50;99.90;;;;;;5002920;28;20037;-48
2022/01/08 02:52:12;;;;;;;1.85;1.75;;;-2.50;99.90;;;;;;5004460;28;20140;-48
2022/01/08 02:54:38;;;;;;;1.38;1.38;;;-2.40;99.90;;;;;;5004063;28;20048;-49
2022/01/08 02:57:04;;;;;;;1.60;1.50;;;-2.70;99.90;;;;;;5000384;28;20034;-48
2022/01/08 02:59:31;;;;;;;1.85;1.75;;;-2.60;99.90;;;;;;5005359;28;20037;-48
2022/01/08 03:01:56;;;;;;;2.55;2.35;;;-2.50;99.90;;;;;;5005489;28;20498;-48
2022/01/08 03:04:22;;;;;;;2.17;1.90;;;-2.60;99.90;;;;;;4999716;28;20041;-48
2022/01/08 03:06:48;;;;;;;2.53;2.33;;;-2.90;99.90;;;;;;5011587;28;20399;-48
2022/01/08 03:09:14;;;;;;;1.73;1.63;;;-2.90;99.90;;;;;;5002943;28;20044;-47
2022/01/08 03:11:40;;;;;;;3.15;2.30;;;-2.80;99.90;;;;;;4998396;28;20530;-48
2022/01/08 03:14:06;;;;;;;1.75;1.65;;;-2.80;99.90;;;;;;5002437;28;22307;-48
2022/01/08 03:16:32;;;;;;;1.77;1.67;;;-2.70;99.90;;;;;;5000069;28;20049;-48
2022/01/08 03:18:57;;;;;;;1.88;1.77;;;-2.70;99.90;;;;;;5001885;28;21637;-48
2022/01/08 03:21:24;;;;;;;2.45;2.25;;;-2.70;99.90;;;;;;4998956;28;20037;-48
2022/01/08 03:23:56;;;;;;;1.92;1.80;;;-2.60;99.90;;;;;;5002724;28;20049;-48
2022/01/08 03:26:24;;;;;;;1.58;1.52;;;-2.60;99.90;;;;;;5003291;28;20029;-49
2022/01/08 03:28:50;;;;;;;2.15;1.80;;;-2.50;99.90;;;;;;5000282;28;20029;-48
2022/01/08 03:31:17;;;;;;;1.58;1.50;;;-2.50;99.90;;;;;;5004494;28;20037;-48
2022/01/08 03:33:43;;;;;;;2.03;1.92;;;-2.50;99.90;;;;;;4998850;28;20042;-48
2022/01/08 03:36:10;;;;;;;3.05;2.80;;;-2.40;99.90;;;;;;5000452;28;20502;-48
2022/01/08 03:38:36;;;;;;;2.42;2.22;;;-2.30;99.90;;;;;;5011582;28;20025;-48
2022/01/08 03:41:02;;;;;;;6.32;3.45;;;-2.20;99.90;;;;;;5005619;28;20041;-48
2022/01/08 03:43:27;;;;;;;3.40;3.10;;;-2.20;99.90;;;;;;5002458;28;20034;-49
2022/01/08 03:45:53;;;;;;;10.85;5.70;;;-2.10;99.90;;;;;;5002177;28;20115;-48
2022/01/08 03:48:28;;;;;;;2.80;2.47;;;-2.10;99.90;;;;;;4997420;28;20029;-48
2022/01/08 03:50:54;;;;;;;5.53;4.57;;;-2.00;99.90;;;;;;5000620;28;20034;-48
2022/01/08 03:53:20;;;;;;;12.85;6.75;;;-1.90;99.90;;;;;;4998195;28;20017;-48
2022/01/08 03:55:46;;;;;;;3.50;2.80;;;-1.80;99.90;;;;;;4999574;28;20033;-48
2022/01/08 03:58:12;;;;;;;2.03;1.92;;;-1.70;99.90;;;;;;4999418;28;20025;-48
2022/01/08 04:00:37;;;;;;;2.03;1.83;;;-1.70;99.90;;;;;;5004329;28;20084;-48
2022/01/08 04:03:03;;;;;;;5.35;3.70;;;-1.60;99.90;;;;;;5001607;28;20030;-48
2022/01/08 04:05:29;;;;;;;5.50;4.53;;;-1.50;99.90;;;;;;5002570;28;20482;-48
2022/01/08 04:07:55;;;;;;;2.45;2.25;;;-1.50;99.90;;;;;;5005206;28;20505;-48
2022/01/08 04:10:20;;;;;;;4.25;3.85;;;-1.40;99.90;;;;;;5003196;28;20041;-48
2022/01/08 04:12:51;;;;;;;8.25;6.85;;;-1.30;99.90;;;;;;5000110;28;20087;-48
2022/01/08 04:15:38;;;;;;;2.60;2.40;;;-1.30;99.90;;;;;;4999879;28;20088;-49
2022/01/08 04:18:03;;;;;;;2.20;2.00;;;-1.20;99.90;;;;;;5004933;28;20037;-48
2022/01/08 04:20:29;;;;;;;7.53;4.78;;;-1.20;99.90;;;;;;5003408;28;20457;-50
2022/01/08 04:22:55;;;;;;;3.40;2.78;;;-1.10;99.90;;;;;;5001050;28;20131;-48
2022/01/08 04:25:22;;;;;;;2.20;1.85;;;-1.10;99.90;;;;;;5000617;28;20033;-48
2022/01/08 04:27:48;;;;;;;3.50;2.95;;;-1.00;99.90;;;;;;4997167;28;20112;-48
2022/01/08 04:30:14;;;;;;;2.78;2.58;;;-1.00;99.90;;;;;;5004587;28;20947;-49
2022/01/08 04:32:40;;;;;;;2.08;1.90;;;-0.90;99.90;;;;;;5001401;28;20041;-48
2022/01/08 04:35:06;;;;;;;2.65;2.20;;;-0.90;99.90;;;;;;5001575;28;20048;-48
2022/01/08 04:37:32;;;;;;;1.90;1.50;;;-0.80;99.90;;;;;;4998513;28;20770;-48
2022/01/08 04:39:57;;;;;;;3.85;2.15;;;-0.80;99.90;;;;;;5002346;28;20034;-49
2022/01/08 04:42:23;;;;;;;1.20;1.20;;;-0.80;99.90;;;;;;5003646;28;20528;-48
2022/01/08 04:44:49;;;;;;;3.65;3.35;;;-0.70;99.90;;;;;;5006348;28;20034;-49
2022/01/08 04:47:15;;;;;;;2.03;1.40;;;-0.60;99.90;;;;;;5013314;28;20029;-49
2022/01/08 04:49:40;;;;;;;1.05;1.05;;;-0.60;99.90;;;;;;5011375;28;20049;-48
2022/01/08 04:52:07;;;;;;;1.10;1.10;;;-0.50;99.90;;;;;;5005532;28;20152;-48
2022/01/08 04:54:33;;;;;;;1.67;1.58;;;-0.40;99.90;;;;;;4999049;28;21252;-48
2022/01/08 04:56:59;;;;;;;1.00;1.00;;;-0.40;99.90;;;;;;5000675;28;20037;-49
2022/01/08 04:59:24;;;;;;;0.90;0.90;;;-0.30;99.90;;;;;;4998030;28;20426;-49
2022/01/08 05:01:50;;;;;;;1.15;1.10;;;-0.30;99.90;;;;;;4997759;28;20037;-48
2022/01/08 05:04:16;;;;;;;0.88;0.88;;;-0.30;99.90;;;;;;5001654;28;20037;-48
2022/01/08 05:06:41;;;;;;;1.13;1.13;;;-0.20;99.90;;;;;;5001400;28;20029;-48
2022/01/08 05:09:07;;;;;;;1.60;0.90;;;-0.20;99.90;;;;;;5004790;28;20044;-48
2022/01/08 05:11:33;;;;;;;1.00;1.00;;;-0.10;99.90;;;;;;4998920;28;20843;-48
2022/01/08 05:13:58;;;;;;;2.17;0.90;;;-0.10;99.90;;;;;;5000156;28;20034;-48
2022/01/08 05:16:26;;;;;;;0.85;0.85;;;0.00;99.90;;;;;;4996250;28;20041;-48
2022/01/08 05:18:54;;;;;;;1.00;1.00;;;0.00;99.90;;;;;;4994690;28;20079;-48
2022/01/08 05:21:29;;;;;;;0.80;0.80;;;0.00;99.90;;;;;;4997827;28;20033;-48
2022/01/08 05:23:56;;;;;;;0.85;0.85;;;0.10;99.90;;;;;;5002286;28;21051;-48
2022/01/08 05:26:25;;;;;;;1.85;1.00;;;0.10;99.90;;;;;;4997500;28;20117;-48
2022/01/08 05:28:51;;;;;;;;;;;0.20;99.90;;;;;;4995030;28;20167;-48
2022/01/08 05:31:18;;;;;;;0.88;0.88;;;0.20;99.90;;;;;;4998455;28;19932;-48
2022/01/08 05:33:44;;;;;;;0.90;0.90;;;0.30;99.90;;;;;;5000374;28;20112;-49
2022/01/08 05:36:10;;;;;;;0.80;0.80;;;0.40;99.90;;;;;;5001044;28;20098;-48
2022/01/08 05:38:35;;;;;;;1.00;1.00;;;0.40;99.90;;;;;;5000523;28;20034;-48
2022/01/08 05:41:02;;;;;;;0.90;0.90;;;0.50;99.90;;;;;;4999147;28;20702;-48
2022/01/08 05:43:28;;;;;;;1.20;0.98;;;0.50;99.90;;;;;;5000945;28;20072;-48
2022/01/08 05:45:56;;;;;;;1.00;1.00;;;0.60;99.90;;;;;;5003629;28;20038;-48
2022/01/08 05:48:22;;;;;;;0.98;0.98;;;0.60;99.90;;;;;;5001214;28;20026;-49
2022/01/08 05:50:49;;;;;;;1.27;1.20;;;0.70;99.90;;;;;;5004932;28;20120;-48
2022/01/08 05:53:16;;;;;;;0.98;0.98;;;0.70;99.90;;;;;;5004449;28;20045;-49
2022/01/08 05:55:41;;;;;;;1.40;1.35;;;0.70;99.90;;;;;;5005679;28;20029;-48
2022/01/08 05:58:07;;;;;;;1.05;1.00;;;0.80;99.90;;;;;;5000204;28;20048;-48
2022/01/08 06:00:32;;;;;;;0.93;0.93;;;0.80;99.90;;;;;;5001917;28;20061;-48
2022/01/08 06:02:58;;;;;;;0.75;0.75;;;0.80;99.90;;;;;;5002571;28;20029;-49
2022/01/08 06:05:25;;;;;;;0.80;0.80;;;0.80;99.90;;;;;;5002210;28;20628;-48
2022/01/08 06:07:51;;;;;;;0.90;0.90;;;0.90;99.90;;;;;;5042456;28;20773;-48
2022/01/08 06:10:17;;;;;;;3.42;1.33;;;0.80;99.90;;;;;;5007599;28;20033;-49
2022/01/08 06:12:42;;;;;;;0.95;0.95;;;0.90;99.90;;;;;;5001535;28;20033;-48
2022/01/08 06:15:08;;;;;;;1.13;1.05;;;0.90;99.90;;;;;;5002764;28;20451;-48
2022/01/08 06:17:34;;;;;;;1.00;1.00;;;0.90;99.90;;;;;;5002880;28;20048;-49
2022/01/08 06:20:00;;;;;;;1.30;1.30;;;0.90;99.90;;;;;;4996685;28;20034;-48
2022/01/08 06:22:25;;;;;;;1.25;1.20;;;0.90;99.90;;;;;;5004950;28;20135;-48
2022/01/08 06:24:51;;;;;;;0.98;0.98;;;0.80;99.90;;;;;;5001551;28;20183;-49
2022/01/08 06:27:17;;;;;;;3.53;1.15;;;0.90;99.90;;;;;;5015056;28;20063;-48
2022/01/08 06:29:42;;;;;;;1.05;1.05;;;0.90;99.90;;;;;;5003922;28;20033;-48
2022/01/08 06:32:08;;;;;;;1.48;1.08;;;0.90;99.90;;;;;;5003744;28;20037;-48
2022/01/08 06:34:33;;;;;;;1.20;1.20;;;0.90;99.90;;;;;;5011814;28;20092;-48
2022/01/08 06:36:59;;;;;;;1.10;1.10;;;1.00;99.90;;;;;;5004153;28;20080;-48
2022/01/08 06:39:25;;;;;;;1.00;1.00;;;1.00;99.90;;;;;;5014312;28;20025;-48
2022/01/08 06:41:50;;;;;;;1.15;1.15;;;1.00;99.90;;;;;;5002740;28;20099;-49
2022/01/08 06:44:16;;;;;;;1.00;1.00;;;1.00;99.90;;;;;;5003097;28;20041;-48
2022/01/08 06:46:41;;;;;;;1.00;1.00;;;1.10;99.90;;;;;;5006649;28;20049;-48
2022/01/08 06:49:08;;;;;;;1.05;1.05;;;1.10;99.90;;;;;;5002765;28;20033;-48
2022/01/08 06:51:34;;;;;;;1.30;1.20;;;1.10;99.90;;;;;;5000892;28;20034;-48
2022/01/08 06:54:00;;;;;;;1.05;1.05;;;1.10;99.90;;;;;;5019789;28;20025;-48
2022/01/08 06:56:25;;;;;;;1.10;1.10;;;1.20;99.90;;;;;;5005151;28;20065;-48
2022/01/08 06:58:51;;;;;;;1.10;1.10;;;1.20;99.90;;;;;;5003216;28;20120;-49
2022/01/08 07:01:17;;;;;;;1.30;1.23;;;1.20;99.90;;;;;;5004635;28;20037;-48
2022/01/08 07:03:42;;;;;;;1.23;1.23;;;1.20;99.90;;;;;;5003377;28;20037;-49
2022/01/08 07:06:08;;;;;;;1.10;1.00;;;1.20;99.90;;;;;;5000250;28;20034;-48
2022/01/08 07:08:34;;;;;;;2.25;1.30;;;1.10;99.90;;;;;;5003090;28;20029;-48
2022/01/08 07:10:59;;;;;;;1.40;1.30;;;1.10;99.90;;;;;;5003571;28;20113;-49
2022/01/08 07:13:25;;;;;;;1.23;1.13;;;1.20;99.90;;;;;;5000118;28;20021;-49
2022/01/08 07:15:50;;;;;;;1.23;1.23;;;1.10;99.90;;;;;;5002125;28;20802;-48
2022/01/08 07:18:16;;;;;;;1.33;1.23;;;1.20;99.90;;;;;;5013610;28;20187;-48
2022/01/08 07:20:41;;;;;;;1.38;1.27;;;1.20;99.90;;;;;;5012361;28;21123;-49
2022/01/08 07:23:07;;;;;;;1.40;1.30;;;1.20;99.90;;;;;;5008028;28;20128;-49
2022/01/08 07:25:33;;;;;;;1.20;1.10;;;1.20;99.90;;;;;;5007949;28;20029;-49
2022/01/08 07:27:58;;;;;;;1.90;1.65;;;1.20;99.90;;;;;;5012622;28;20026;-48
2022/01/08 07:30:24;;;;;;;1.20;1.17;;;1.20;99.90;;;;;;5010088;28;20030;-49
2022/01/08 07:32:52;;;;;;;1.90;1.48;;;1.20;99.90;;;;;;5016936;28;20021;-49
2022/01/08 07:35:21;;;;;;;1.25;1.20;;;1.20;99.90;;;;;;5022665;28;20059;-49
2022/01/08 07:37:51;;;;;;;1.42;1.20;;;1.20;99.90;;;;;;5003953;28;20042;-48
2022/01/08 07:40:18;;;;;;;1.02;1.02;;;1.20;99.90;;;;;;5007898;28;20025;-48
2022/01/08 07:42:44;;;;;;;1.15;1.15;;;1.20;99.90;;;;;;5008116;28;20103;-48
2022/01/08 07:45:10;;;;;;;1.38;1.27;;;1.20;99.90;;;;;;5013877;28;20481;-48
2022/01/08 07:47:36;;;;;;;1.23;1.23;;;1.30;99.90;;;;;;5026151;28;20478;-49
2022/01/08 07:50:04;;;;;;;1.02;1.02;;;1.30;99.90;;;;;;5005773;28;20983;-49
2022/01/08 07:52:29;;;;;;;0.98;0.98;;;1.30;99.90;;;;;;5002626;28;20032;-48
2022/01/08 07:54:55;;;;;;;0.93;0.93;;;1.30;99.90;;;;;;5003888;28;20038;-48
2022/01/08 07:57:20;;;;;;;1.00;1.00;;;1.40;99.90;;;;;;5018544;28;21006;-49
2022/01/08 07:59:46;;;;;;;1.63;1.35;;;1.40;99.90;;;;;;5003870;28;20038;-48
2022/01/08 08:02:12;;;;;;;1.58;1.48;;;1.40;99.90;;;;;;5005690;28;20041;-48
2022/01/08 08:04:38;;;;;;;1.10;1.10;;;1.40;99.90;;;;;;5007105;28;20087;-49
2022/01/08 08:07:04;;;;;;;1.33;1.30;;;1.40;99.90;;;;;;5006727;28;20511;-50
2022/01/08 08:09:30;;;;;;;1.02;1.02;;;1.40;99.90;;;;;;5008664;28;20021;-49
2022/01/08 08:11:56;;;;;;;1.05;1.05;;;1.40;99.90;;;;;;5004857;28;20025;-48
2022/01/08 08:14:22;;;;;;;0.90;0.90;;;1.40;99.90;;;;;;5008175;28;20060;-48
2022/01/08 08:16:47;;;;;;;1.15;1.13;;;1.40;99.90;;;;;;5005426;28;22202;-48
2022/01/08 08:19:13;;;;;;;0.90;0.90;;;1.40;99.90;;;;;;5006868;28;20048;-48
2022/01/08 08:21:39;;;;;;;0.93;0.93;;;1.40;99.90;;;;;;5006946;28;20021;-48
2022/01/08 08:24:06;;;;;;;1.67;1.20;;;1.50;99.90;;;;;;5004853;28;20042;-48
2022/01/08 08:26:32;;;;;;;0.90;0.90;;;1.50;99.90;;;;;;5025616;28;20347;-48
2022/01/08 08:28:58;;;;;;;1.10;1.00;;;1.50;99.90;;;;;;5001208;28;20935;-48
2022/01/08 08:31:24;;;;;;;1.00;1.00;;;1.50;99.90;;;;;;4997882;28;20038;-50
2022/01/08 08:33:50;;;;;;;0.90;0.90;;;1.40;99.90;;;;;;5007206;28;20045;-48
2022/01/08 08:36:16;;;;;;;0.93;0.93;;;1.50;99.90;;;;;;5003283;28;20033;-48
2022/01/08 08:38:42;;;;;;;1.00;1.00;;;1.40;99.90;;;;;;5002362;28;20037;-48
2022/01/08 08:41:08;;;;;;;1.10;1.10;;;1.40;99.90;;;;;;5005819;28;20041;-48
2022/01/08 08:43:34;;;;;;;0.90;0.90;;;1.40;99.90;;;;;;5005311;28;20490;-48
2022/01/08 08:45:59;;;;;;;0.80;0.80;;;1.40;99.90;;;;;;5001548;28;20083;-48
2022/01/08 08:48:25;;;;;;;0.73;0.73;;;1.40;99.90;;;;;;5001606;28;20244;-48
2022/01/08 08:50:51;;;;;;;0.88;0.88;;;1.30;99.90;;;;;;5003660;28;20037;-48
2022/01/08 08:53:17;;;;;;;0.98;0.98;;;1.40;99.90;;;;;;5009448;28;20025;-48
2022/01/08 08:55:42;;;;;;;0.90;0.90;;;1.30;99.90;;;;;;5006292;28;20033;-48
2022/01/08 08:58:08;;;;;;;1.92;1.08;;;1.30;99.90;;;;;;5005126;28;20041;-48
2022/01/08 09:00:33;;;;;;;0.98;0.98;;;1.30;99.90;;;;;;5005514;28;20045;-48
2022/01/08 09:03:00;;;;;;;1.20;1.10;;;1.30;99.90;;;;;;5006877;28;22041;-48
2022/01/08 09:05:25;;;;;;;1.00;1.00;;;1.30;99.90;;;;;;5002271;28;20040;-48
2022/01/08 09:07:51;;;;;;;1.33;1.30;;;1.30;99.90;;;;;;5004636;28;20018;-48
2022/01/08 09:10:22;;;;;;;1.00;1.00;;;1.20;99.90;;;;;;5007181;28;20401;-48
2022/01/08 09:12:48;;;;;;;1.30;1.02;;;1.20;99.90;;;;;;5006895;28;20037;-48
2022/01/08 09:15:15;;;;;;;1.10;1.10;;;1.20;99.90;;;;;;5007478;28;20502;-48
2022/01/08 09:17:41;;;;;;;0.80;0.80;;;1.20;99.90;;;;;;5005945;28;20034;-48
2022/01/08 09:20:08;;;;;;;0.95;0.95;;;1.20;99.90;;;;;;5009339;28;20548;-48
2022/01/08 09:22:35;;;;;;;0.93;0.93;;;1.20;99.90;;;;;;5006397;28;20063;-48
2022/01/08 09:25:00;;;;;;;1.00;1.00;;;1.20;99.90;;;;;;5017340;28;20033;-48
2022/01/08 09:27:26;;;;;;;1.10;1.10;;;1.20;99.90;;;;;;5011654;28;20528;-48
2022/01/08 09:29:52;;;;;;;0.90;0.90;;;1.20;99.90;;;;;;5010386;28;20973;-48
2022/01/08 09:32:18;;;;;;;0.98;0.98;;;1.20;99.90;;;;;;5007426;28;21886;-48
2022/01/08 09:34:44;;;;;;;0.90;0.90;;;1.30;99.90;;;;;;5009095;28;20037;-48
2022/01/08 09:37:11;;;;;;;0.85;0.85;;;1.30;99.90;;;;;;5009529;28;20082;-48
2022/01/08 09:39:39;;;;;;;1.17;1.17;;;1.30;99.90;;;;;;5009142;28;20065;-48
2022/01/08 09:42:07;;;;;;;3.17;1.30;;;1.20;99.90;;;;;;5010918;28;20032;-48
2022/01/08 09:44:34;;;;;;;1.08;1.08;;;1.20;99.90;;;;;;5013244;28;20041;-48
2022/01/08 09:47:00;;;;;;;1.27;1.27;;;1.30;99.90;;;;;;5007139;28;20435;-47
2022/01/08 09:49:26;;;;;;;1.52;1.35;;;1.30;99.90;;;;;;5014166;28;20025;-48
2022/01/08 09:51:52;;;;;;;1.27;1.27;;;1.30;99.90;;;;;;5010824;28;20072;-48
2022/01/08 09:54:17;;;;;;;1.42;1.33;;;1.30;99.90;;;;;;5007595;28;20116;-48
2022/01/08 09:56:43;;;;;;;1.17;1.15;;;1.30;99.90;;;;;;5010053;28;20045;-48
2022/01/08 09:59:09;;;;;;;1.50;1.50;;;1.30;99.90;;;;;;5026727;28;20506;-47
2022/01/08 10:01:36;;;;;;;1.95;1.50;;;1.40;99.90;;;;;;5007725;28;20167;-48
2022/01/08 10:04:04;;;;;;;1.00;1.00;;;1.40;99.90;;;;;;5018574;28;20113;-48
2022/01/08 10:06:33;;;;;;;1.13;1.13;;;1.40;99.90;;;;;;5014231;28;20919;-48
2022/01/08 10:08:59;;;;;;;2.60;1.35;;;1.40;99.90;;;;;;5011711;28;20462;-48
2022/01/08 10:11:26;;;;;;;2.35;1.42;;;1.40;99.90;;;;;;5007675;28;20690;-48
2022/01/08 10:14:02;;;;;;;1.38;1.30;;;1.50;99.90;;;;;;5008082;28;20053;-48
2022/01/08 10:19:31;;;;;;;1.73;1.63;;;1.40;99.90;;;;;;5008740;28;20117;-48
2022/01/08 10:21:57;;;;;;;1.20;1.20;;;1.40;99.90;;;;;;5005075;28;20017;-48
2022/01/08 10:24:29;;;;;;;1.58;1.48;;;1.40;99.90;;;;;;5012904;28;20044;-48
2022/01/08 10:27:03;;;;;;;2.30;1.40;;;1.40;99.90;;;;;;5011213;28;20029;-48
2022/01/08 10:29:28;;;;;;;1.58;1.52;;;1.40;99.90;;;;;;5006349;28;20037;-48
2022/01/08 10:31:55;;;;;;;2.13;1.48;;;1.40;99.90;;;;;;5007382;28;20038;-48
2022/01/08 10:34:25;;;;;;;1.27;1.25;;;1.50;99.90;;;;;;5010288;28;20033;-48
2022/01/08 10:36:56;;;;;;;1.55;1.45;;;1.50;99.90;;;;;;5008260;28;20118;-48
2022/01/08 10:39:33;;;;;;;2.35;2.03;;;1.50;99.90;;;;;;5008021;28;20033;-48
2022/01/08 10:42:29;;;;;;;2.40;1.30;;;1.50;99.90;;;;;;5009369;28;20033;-48
2022/01/08 10:44:54;;;;;;;1.80;1.70;;;1.50;99.90;;;;;;4998657;28;20376;-48
2022/01/08 10:47:21;;;;;;;1.98;1.60;;;1.50;99.90;;;;;;5005837;28;20083;-48
2022/01/08 10:50:02;;;;;;;1.42;1.33;;;1.50;99.90;;;;;;5005642;28;20153;-48
2022/01/08 10:52:39;;;;;;;1.40;1.30;;;1.50;99.90;;;;;;5005266;28;20121;-48
2022/01/08 10:55:05;;;;;;;1.50;1.40;;;1.50;99.90;;;;;;5005301;28;20041;-48
2022/01/08 10:57:37;;;;;;;1.52;1.42;;;1.60;99.90;;;;;;5004724;28;20060;-48
2022/01/08 11:00:11;;;;;;;1.83;1.60;;;1.60;99.90;;;;;;5011160;28;20053;-47
2022/01/08 11:02:38;;;;;;;1.70;1.60;;;1.60;99.90;;;;;;5004566;28;20044;-47
2022/01/08 11:05:08;;;;;;;3.05;2.17;;;1.60;99.90;;;;;;5001240;28;20498;-48
2022/01/08 11:07:35;;;;;;;4.00;2.38;;;1.60;99.90;;;;;;5017498;28;20486;-48
2022/01/08 11:10:06;;;;;;;1.90;1.80;;;1.60;99.90;;;;;;5032542;28;20183;-47
2022/01/08 11:12:40;;;;;;;1.73;1.63;;;1.60;99.90;;;;;;5011319;28;20025;-47
2022/01/08 11:17:44;;;;;;;5.63;2.08;;;1.60;99.90;;;;;;5022702;28;20116;-47
2022/01/08 11:20:21;;;;;;;3.67;2.53;;;1.60;99.90;;;;;;5001383;28;20041;-48
2022/01/08 11:22:50;;;;;;;2.40;2.17;;;1.60;99.90;;;;;;5001428;28;20056;-48
2022/01/08 11:25:24;;;;;;;2.13;1.85;;;1.60;99.90;;;;;;5010954;28;20572;-47
2022/01/08 11:27:55;;;;;;;1.50;1.45;;;1.60;99.90;;;;;;5011780;28;20018;-47
2022/01/08 11:30:26;;;;;;;2.33;2.10;;;1.70;99.90;;;;;;5004863;28;20493;-47
2022/01/08 11:32:59;;;;;;;2.15;1.88;;;1.60;99.90;;;;;;5010333;28;20048;-48
2022/01/08 11:35:26;;;;;;;2.15;1.75;;;1.70;99.90;;;;;;5022924;28;20057;-48
2022/01/08 11:37:54;;;;;;;2.75;2.10;;;1.70;99.90;;;;;;5021698;28;20032;-47
2022/01/08 11:40:23;;;;;;;2.28;1.50;;;1.80;99.90;;;;;;5021002;28;20037;-47
2022/01/08 11:42:49;;;;;;;;;;;1.80;99.90;;;;;;5020471;28;20017;-48
2022/01/08 11:45:19;;;;;;;3.20;1.48;;;1.90;99.90;;;;;;5011088;28;19947;-47
2022/01/08 11:47:51;;;;;;;2.28;1.70;;;1.90;99.90;;;;;;5019593;28;20022;-47
2022/01/08 11:50:28;;;;;;;1.77;1.67;;;1.90;99.90;;;;;;5007148;28;20192;-47
2022/01/08 11:53:17;;;;;;;2.13;1.70;;;1.90;99.90;;;;;;5006010;28;20638;-47
2022/01/08 11:55:46;;;;;;;1.60;1.50;;;1.90;99.90;;;;;;5018452;28;21019;-47
2022/01/08 11:58:23;;;;;;;;;;;1.90;99.90;;;;;;5026950;28;20037;-48
2022/01/08 12:00:56;;;;;;;1.35;1.25;;;2.00;99.90;;;;;;5019433;28;19922;-47
2022/01/08 12:03:27;;;;;;;1.77;1.52;;;2.00;99.90;;;;;;5011962;28;20033;-54
2022/01/08 12:05:53;;;;;;;1.60;1.50;;;2.00;99.90;;;;;;5019726;28;20034;-48
2022/01/08 12:08:52;;;;;;;1.27;1.27;;;2.00;99.90;;;;;;5020954;28;20029;-48
2022/01/08 12:11:18;;;;;;;1.98;1.80;;;2.00;99.90;;;;;;5026573;28;20495;-47
2022/01/08 12:13:48;;;;;;;3.88;1.92;;;2.00;99.90;;;;;;5013927;28;20026;-48
2022/01/08 12:16:34;;;;;;;2.15;1.60;;;2.00;99.90;;;;;;5009003;28;20033;-47
2022/01/08 12:19:00;;;;;;;1.73;1.60;;;2.00;99.90;;;;;;5014115;28;20025;-47
2022/01/08 12:21:31;;;;;;;1.80;1.35;;;2.00;99.90;;;;;;5015910;28;20041;-47
2022/01/08 12:24:00;;;;;;;3.13;1.50;;;2.00;99.90;;;;;;5010378;28;20115;-48
2022/01/08 12:26:25;;;;;;;2.28;1.55;;;1.90;99.90;;;;;;5009513;28;20021;-47
2022/01/08 12:29:01;;;;;;;1.38;1.30;;;1.90;99.90;;;;;;5010190;28;21600;-47
2022/01/08 12:31:35;;;;;;;1.10;1.02;;;1.90;99.90;;;;;;5016131;28;20033;-47
2022/01/08 12:34:30;;;;;;;1.88;1.77;;;1.90;99.90;;;;;;5024188;28;20029;-48
2022/01/08 12:36:58;;;;;;;1.45;1.10;;;1.80;99.90;;;;;;5024188;28;20269;-47
2022/01/08 12:39:42;;;;;;;1.27;1.15;;;1.80;99.90;;;;;;5013512;28;20029;-47
2022/01/08 12:42:19;;;;;;;1.48;1.38;;;1.80;99.90;;;;;;5015641;28;20037;-47
2022/01/08 12:45:09;;;;;;;1.63;1.52;;;1.70;99.90;;;;;;5009402;28;20138;-48
2022/01/08 12:47:48;;;;;;;1.10;1.00;;;1.70;99.90;;;;;;5018252;28;20037;-48
2022/01/08 12:50:33;;;;;;;9.32;1.38;;;1.70;99.90;;;;;;5021737;28;20502;-47
2022/01/08 12:53:05;;;;;;;1.00;1.00;;;1.70;99.90;;;;;;5017428;28;20083;-47
2022/01/08 12:55:36;;;;;;;1.05;1.05;;;1.70;99.90;;;;;;5010787;28;20033;-47
2022/01/08 12:58:33;;;;;;;1.15;1.10;;;1.60;99.90;;;;;;5028591;28;20064;-47
2022/01/08 13:01:04;;;;;;;1.73;1.23;;;1.60;99.90;;;;;;5007940;28;20045;-47
2022/01/08 13:03:33;;;;;;;1.20;1.10;;;1.60;99.90;;;;;;5010055;28;20457;-48
2022/01/08 13:06:02;;;;;;;1.50;1.40;;;1.60;99.90;;;;;;5013952;28;20036;-48
2022/01/08 13:08:29;;;;;;;1.40;1.13;;;1.60;99.90;;;;;;5024478;28;20359;-48
2022/01/08 13:10:57;;;;;;;1.27;1.05;;;1.60;99.90;;;;;;5020201;28;20017;-47
2022/01/08 13:13:24;;;;;;;2.40;1.75;;;1.60;99.90;;;;;;5018223;28;20164;-48
2022/01/08 13:15:51;;;;;;;2.70;1.38;;;1.60;99.90;;;;;;5013186;28;20418;-48
2022/01/08 13:18:19;;;;;;;1.33;1.20;;;1.60;99.90;;;;;;5019528;28;20500;-48
2022/01/08 13:20:45;;;;;;;1.08;1.08;;;1.60;99.90;;;;;;5019518;28;20629;-48
2022/01/08 13:23:12;;;;;;;1.20;1.10;;;1.60;99.90;;;;;;5022397;28;20049;-48